Time;durP1;ratioP1;P1;durP2;ratioP2;P2;SDS_P1;SDS_P2;PMS_P1;PMS_P2;Temp;Humidity;BMP_temperature;BMP_pressure;BME280_temperature;BME280_humidity;BME280_pressure;Samples;Min_cycle;Max_cycle;Signal;HPM_P1;HPM_P2
2021/08/28 00:01:38;;;;;;;3.90;3.13;;;;;;;20.33;51.22;101204.31;5074289;28;20318;-63
2021/08/28 00:04:03;;;;;;;5.20;2.97;;;;;;;20.28;51.30;101194.53;5070614;28;20640;-63
2021/08/28 00:06:29;;;;;;;5.07;2.87;;;;;;;20.25;51.40;101203.16;5070216;28;20225;-63
2021/08/28 00:08:54;;;;;;;4.27;3.17;;;;;;;20.10;51.81;101208.78;5070491;28;20203;-63
2021/08/28 00:11:20;;;;;;;5.53;3.00;;;;;;;20.07;51.97;101215.34;5070523;28;20177;-63
2021/08/28 00:13:46;;;;;;;4.97;3.20;;;;;;;19.97;52.24;101208.25;5069987;28;20266;-63
2021/08/28 00:16:12;;;;;;;4.53;3.20;;;;;;;19.89;52.40;101214.72;5070549;28;20312;-64
2021/08/28 00:18:37;;;;;;;4.73;3.20;;;;;;;19.83;52.58;101205.41;5052247;28;20187;-63
2021/08/28 00:21:03;;;;;;;5.90;3.30;;;;;;;19.63;52.93;101188.38;5070273;28;20177;-63
2021/08/28 00:23:29;;;;;;;3.90;3.07;;;;;;;19.54;52.98;101163.19;5070138;28;20178;-64
2021/08/28 00:25:54;;;;;;;5.00;3.10;;;;;;;19.62;53.00;101181.22;5088754;28;20189;-64
2021/08/28 00:28:20;;;;;;;4.83;3.17;;;;;;;19.68;53.10;101196.94;5090292;28;20214;-63
2021/08/28 00:30:45;;;;;;;5.47;3.63;;;;;;;19.77;53.04;101199.69;5090426;28;20175;-63
2021/08/28 00:33:13;;;;;;;5.07;3.17;;;;;;;19.77;53.22;101198.91;5077804;28;20183;-64
2021/08/28 00:35:39;;;;;;;5.77;3.10;;;;;;;19.65;53.86;101197.91;5074174;28;20250;-64
2021/08/28 00:38:06;;;;;;;5.07;3.30;;;;;;;19.65;53.69;101199.94;5093981;28;20182;-63
2021/08/28 00:40:33;;;;;;;5.97;3.33;;;;;;;19.56;54.01;101208.44;5094488;28;20176;-63
2021/08/28 00:42:58;;;;;;;5.70;3.17;;;;;;;19.57;53.84;101207.19;5094353;28;20664;-63
2021/08/28 00:45:36;;;;;;;4.60;2.97;;;;;;;19.55;54.05;101212.50;5093387;28;20227;-63
2021/08/28 00:48:08;;;;;;;4.83;3.33;;;;;;;19.27;54.04;101174.59;5094289;28;20217;-63
2021/08/28 00:50:38;;;;;;;3.90;3.20;;;;;;;19.28;54.29;101207.84;5094210;28;20205;-63
2021/08/28 00:53:07;;;;;;;4.23;3.40;;;;;;;19.41;54.20;101222.44;5094147;28;20662;-63
2021/08/28 00:55:40;;;;;;;8.33;3.60;;;;;;;19.47;54.44;101226.16;5094165;28;20184;-64
2021/08/28 00:58:06;;;;;;;3.50;2.40;;;;;;;19.04;54.28;101192.97;5053630;28;20249;-64
2021/08/28 01:00:42;;;;;;;3.83;2.70;;;;;;;19.13;54.76;101220.25;5060331;28;20663;-63
2021/08/28 01:03:08;;;;;;;4.30;3.07;;;;;;;18.97;55.02;101215.00;5073726;28;20183;-64
2021/08/28 01:05:47;;;;;;;5.20;2.60;;;;;;;19.05;54.91;101230.28;5073599;28;20179;-63
2021/08/28 01:08:42;;;;;;;4.43;2.70;;;;;;;18.89;55.09;101230.66;5072224;28;20267;-64
2021/08/28 01:11:20;;;;;;;3.23;2.40;;;;;;;18.50;55.38;101184.03;5073649;28;20168;-63
2021/08/28 01:13:53;;;;;;;3.60;2.53;;;;;;;18.31;56.43;101224.59;5073369;28;20183;-63
2021/08/28 01:16:21;;;;;;;4.27;2.83;;;;;;;18.18;57.09;101219.16;5072550;28;20551;-63
2021/08/28 01:18:46;;;;;;;4.33;2.67;;;;;;;18.14;57.68;101219.31;5060988;28;20190;-63
2021/08/28 01:21:27;;;;;;;6.50;2.90;;;;;;;18.07;57.39;101188.00;5073557;28;20184;-63
2021/08/28 01:23:54;;;;;;;5.13;3.00;;;;;;;18.13;57.12;101178.47;5056640;28;20187;-63
2021/08/28 01:26:23;;;;;;;4.03;2.50;;;;;;;18.38;57.04;101204.66;5093533;28;20189;-63
2021/08/28 01:28:56;;;;;;;3.57;2.50;;;;;;;18.38;56.74;101215.88;5093756;28;20179;-63
2021/08/28 01:31:22;;;;;;;3.30;2.40;;;;;;;18.18;56.56;101194.69;5093307;28;20596;-63
2021/08/28 01:33:49;;;;;;;6.13;2.80;;;;;;;18.40;56.57;101221.78;5093225;28;20596;-63
2021/08/28 01:36:17;;;;;;;3.67;2.83;;;;;;;18.41;56.70;101214.91;5088877;28;20538;-63
2021/08/28 01:38:44;;;;;;;4.20;2.47;;;;;;;18.27;56.84;101212.75;5073296;28;20180;-63
2021/08/28 01:41:10;;;;;;;3.83;2.73;;;;;;;18.26;56.69;101202.78;5073176;28;20258;-63
2021/08/28 01:43:38;;;;;;;3.93;2.90;;;;;;;17.84;57.04;101155.00;5072772;28;20186;-63
2021/08/28 01:46:04;;;;;;;5.07;2.97;;;;;;;18.01;57.60;101209.50;5071946;28;20206;-63
2021/08/28 01:48:32;;;;;;;3.87;3.00;;;;;;;17.57;57.92;101146.63;5078933;28;20407;-63
2021/08/28 01:50:59;;;;;;;3.63;2.97;;;;;;;17.57;57.85;101138.22;5093230;28;20187;-63
2021/08/28 01:53:26;;;;;;;4.10;2.90;;;;;;;18.01;58.03;101203.91;5092724;28;20656;-63
2021/08/28 01:55:52;;;;;;;3.83;3.07;;;;;;;17.67;57.83;101150.19;5093209;28;20189;-63
2021/08/28 01:58:17;;;;;;;4.57;3.00;;;;;;;17.97;57.67;101200.47;5093090;28;20649;-63
2021/08/28 02:00:43;;;;;;;5.63;3.00;;;;;;;17.96;57.89;101204.53;5084644;28;20179;-63
2021/08/28 02:03:08;;;;;;;4.37;2.93;;;;;;;17.89;57.71;101199.25;5072306;28;20465;-63
2021/08/28 02:05:47;;;;;;;5.13;2.63;;;;;;;17.80;58.84;101210.47;5072531;28;20642;-63
2021/08/28 02:08:26;;;;;;;5.10;3.33;;;;;;;17.01;58.45;101076.25;5077850;28;20624;-63
2021/08/28 02:11:13;;;;;;;4.40;3.33;;;;;;;17.88;58.14;101197.69;5092956;28;20220;-63
2021/08/28 02:13:50;;;;;;;5.20;3.03;;;;;;;17.47;58.24;101138.69;5076221;28;20255;-62
2021/08/28 02:16:21;;;;;;;3.50;2.63;;;;;;;17.91;58.18;101199.53;5070913;28;20443;-63
2021/08/28 02:18:53;;;;;;;7.40;3.47;;;;;;;17.71;58.73;101196.44;5072411;28;20648;-63
2021/08/28 02:21:24;;;;;;;4.10;3.10;;;;;;;17.77;58.50;101200.19;5072158;28;20214;-63
2021/08/28 02:23:58;;;;;;;5.50;3.30;;;;;;;17.87;58.62;101207.34;5072793;28;20175;-63
2021/08/28 02:26:29;;;;;;;5.37;3.30;;;;;;;17.85;58.13;101195.81;5092313;28;20160;-63
2021/08/28 02:29:00;;;;;;;4.43;3.23;;;;;;;17.82;58.23;101204.38;5092623;28;20193;-63
2021/08/28 02:31:31;;;;;;;5.13;3.73;;;;;;;17.78;58.30;101201.75;5091901;28;20182;-63
2021/08/28 02:33:57;;;;;;;7.20;4.17;;;;;;;17.28;58.60;101138.66;5092067;28;20570;-63
2021/08/28 02:36:23;;;;;;;5.60;4.10;;;;;;;17.63;58.99;101211.22;5092069;28;20178;-63
2021/08/28 02:38:52;;;;;;;7.80;4.90;;;;;;;17.41;59.53;101216.19;5092372;28;20186;-64
2021/08/28 02:41:20;;;;;;;6.20;4.43;;;;;;;17.30;60.07;101203.38;5092159;28;20179;-64
2021/08/28 02:43:47;;;;;;;5.20;3.90;;;;;;;16.85;59.82;101161.28;5089407;28;20184;-64
2021/08/28 02:46:15;;;;;;;6.17;4.43;;;;;;;17.16;60.23;101220.78;5071991;28;20186;-63
2021/08/28 02:48:42;;;;;;;7.87;3.90;;;;;;;16.42;60.78;101136.25;5079692;28;20247;-64
2021/08/28 02:51:10;;;;;;;5.83;4.40;;;;;;;17.05;60.86;101228.84;5073949;28;20657;-64
2021/08/28 02:53:42;;;;;;;6.00;4.90;;;;;;;16.73;61.94;101227.78;5091500;28;20193;-64
2021/08/28 02:56:09;;;;;;;6.47;5.30;;;;;;;16.54;63.02;101232.53;5086686;28;20752;-63
2021/08/28 02:58:35;;;;;;;6.00;5.10;;;;;;;16.59;62.62;101235.50;5071576;28;20730;-63
2021/08/28 03:01:02;;;;;;;6.93;4.87;;;;;;;16.65;62.49;101233.66;5071474;28;20183;-63
2021/08/28 03:03:28;;;;;;;5.97;4.43;;;;;;;16.74;62.16;101230.13;5071206;28;20171;-63
2021/08/28 03:05:54;;;;;;;7.13;4.60;;;;;;;16.83;61.83;101226.59;5071597;28;20183;-64
2021/08/28 03:08:20;;;;;;;5.70;4.97;;;;;;;16.83;61.89;101225.34;5053058;28;20207;-64
2021/08/28 03:10:53;;;;;;;5.37;4.50;;;;;;;16.29;61.68;101149.53;5071534;28;20258;-63
2021/08/28 03:13:20;;;;;;;6.13;4.37;;;;;;;16.80;62.07;101228.28;5070729;28;20649;-64
2021/08/28 03:15:47;;;;;;;6.20;4.40;;;;;;;16.42;62.18;101169.84;5071394;28;20180;-63
2021/08/28 03:18:16;;;;;;;6.73;4.20;;;;;;;16.93;61.94;101229.75;5071308;28;20262;-63
2021/08/28 03:20:45;;;;;;;5.20;3.77;;;;;;;16.89;61.24;101214.31;5071045;28;20186;-63
2021/08/28 03:23:12;;;;;;;14.37;6.00;;;;;;;17.06;61.33;101233.19;5070998;28;20276;-63
2021/08/28 03:25:39;;;;;;;11.30;5.20;;;;;;;17.05;61.45;101228.09;5052957;28;20187;-63
2021/08/28 03:28:05;;;;;;;6.47;4.30;;;;;;;16.97;61.60;101226.78;5071020;28;20204;-63
2021/08/28 03:30:31;;;;;;;4.80;3.87;;;;;;;16.81;61.83;101233.41;5071147;28;20249;-63
2021/08/28 03:32:57;;;;;;;5.87;4.30;;;;;;;16.70;62.29;101240.69;5052533;28;20246;-63
2021/08/28 03:35:24;;;;;;;7.43;3.90;;;;;;;16.63;62.67;101235.34;5070747;28;20181;-63
2021/08/28 03:37:50;;;;;;;5.77;3.70;;;;;;;16.56;62.52;101221.66;5070921;28;20558;-63
2021/08/28 03:40:18;;;;;;;7.60;3.77;;;;;;;16.69;62.58;101233.50;5070843;28;20451;-63
2021/08/28 03:42:43;;;;;;;6.33;3.63;;;;;;;16.52;62.18;101200.66;5070760;28;20198;-63
2021/08/28 03:45:10;;;;;;;5.40;3.80;;;;;;;16.79;61.97;101243.50;5070640;28;20183;-63
2021/08/28 03:47:40;;;;;;;5.60;3.70;;;;;;;16.80;62.23;101245.09;5052615;28;20216;-63
2021/08/28 03:50:06;;;;;;;5.10;3.60;;;;;;;16.70;61.98;101230.25;5070575;28;20188;-63
2021/08/28 03:52:32;;;;;;;6.23;3.63;;;;;;;16.69;62.48;101241.91;5070641;28;20691;-63
2021/08/28 03:54:58;;;;;;;5.40;3.67;;;;;;;16.62;62.55;101245.00;5070498;28;20555;-63
2021/08/28 03:57:23;;;;;;;5.23;4.00;;;;;;;16.49;62.92;101241.50;5073440;28;20224;-63
2021/08/28 03:59:49;;;;;;;5.43;3.57;;;;;;;16.68;62.47;101249.53;5070528;28;20248;-63
2021/08/28 04:02:14;;;;;;;6.03;3.57;;;;;;;16.69;62.16;101245.50;5070583;28;20175;-63
2021/08/28 04:04:40;;;;;;;4.50;3.77;;;;;;;16.74;62.49;101244.91;5070916;28;20548;-63
2021/08/28 04:07:05;;;;;;;4.17;3.30;;;;;;;16.42;62.01;101190.66;5070255;28;20208;-63
2021/08/28 04:09:31;;;;;;;5.93;4.03;;;;;;;16.84;62.03;101248.50;5068745;28;20195;-63
2021/08/28 04:11:56;;;;;;;4.40;3.43;;;;;;;16.89;61.80;101254.31;5070534;28;20178;-63
2021/08/28 04:14:22;;;;;;;7.30;3.57;;;;;;;16.93;61.71;101254.16;5070211;28;20180;-63
2021/08/28 04:16:47;;;;;;;5.27;3.83;;;;;;;16.98;61.64;101261.19;5070549;28;20222;-63
2021/08/28 04:19:13;;;;;;;5.50;3.97;;;;;;;16.91;61.38;101239.84;5070334;28;20183;-63
2021/08/28 04:21:38;;;;;;;6.43;3.83;;;;;;;16.93;61.78;101245.75;5070295;28;20517;-63
2021/08/28 04:24:04;;;;;;;4.80;3.70;;;;;;;16.99;61.84;101252.31;5072934;28;20199;-63
2021/08/28 04:26:29;;;;;;;5.53;3.77;;;;;;;17.02;61.59;101246.59;5090526;28;20211;-63
2021/08/28 04:28:56;;;;;;;6.67;3.60;;;;;;;16.57;61.57;101169.28;5090668;28;20180;-63
2021/08/28 04:31:23;;;;;;;5.87;3.97;;;;;;;17.18;61.19;101251.94;5090024;28;20190;-63
2021/08/28 04:33:48;;;;;;;4.73;3.67;;;;;;;17.19;61.22;101244.28;5090073;28;20179;-63
2021/08/28 04:36:14;;;;;;;4.13;3.47;;;;;;;16.92;61.32;101202.22;5086208;28;20211;-63
2021/08/28 04:38:39;;;;;;;7.20;3.50;;;;;;;16.97;61.04;101207.19;5070116;28;20199;-64
2021/08/28 04:41:05;;;;;;;6.00;3.97;;;;;;;17.34;60.89;101256.47;5052460;28;20670;-63
2021/08/28 04:43:30;;;;;;;6.00;3.53;;;;;;;17.41;60.60;101261.81;5069693;28;20174;-63
2021/08/28 04:45:56;;;;;;;4.27;3.43;;;;;;;17.49;60.73;101251.84;5070108;28;20209;-62
2021/08/28 04:48:21;;;;;;;6.50;3.93;;;;;;;17.51;60.48;101259.81;5069985;28;20238;-62
2021/08/28 04:50:47;;;;;;;5.10;3.97;;;;;;;17.40;61.26;101257.44;5070187;28;20267;-63
2021/08/28 04:53:12;;;;;;;5.50;4.17;;;;;;;17.41;61.20;101261.03;5069808;28;20189;-63
2021/08/28 04:55:37;;;;;;;6.30;4.07;;;;;;;17.43;61.43;101262.13;5069960;28;20245;-63
2021/08/28 04:58:03;;;;;;;6.00;4.10;;;;;;;17.51;61.29;101266.16;5070012;28;20230;-63
2021/08/28 05:00:29;;;;;;;5.47;4.30;;;;;;;17.61;61.01;101266.97;5069802;28;20191;-63
2021/08/28 05:02:54;;;;;;;5.13;3.97;;;;;;;17.73;60.57;101278.06;5069852;28;20175;-63
2021/08/28 05:05:20;;;;;;;5.03;4.00;;;;;;;17.81;60.76;101279.28;5069866;28;20187;-63
2021/08/28 05:07:45;;;;;;;6.63;4.37;;;;;;;17.89;60.41;101280.56;5070172;28;20212;-63
2021/08/28 05:10:11;;;;;;;6.97;3.90;;;;;;;18.03;60.57;101277.91;5070418;28;20318;-63
2021/08/28 05:12:37;;;;;;;5.77;3.80;;;;;;;18.05;59.95;101266.22;5076849;28;20181;-63
2021/08/28 05:15:02;;;;;;;4.80;4.00;;;;;;;18.10;60.30;101260.00;5090053;28;20175;-63
2021/08/28 05:17:28;;;;;;;5.77;4.27;;;;;;;18.35;60.13;101272.91;5086401;28;20188;-63
2021/08/28 05:19:54;;;;;;;6.50;4.63;;;;;;;18.11;59.59;101222.28;5074729;28;20283;-63
2021/08/28 05:22:20;;;;;;;6.10;4.40;;;;;;;18.55;59.75;101282.41;5093743;28;20224;-63
2021/08/28 05:24:45;;;;;;;5.27;4.23;;;;;;;18.26;59.38;101231.59;5084880;28;20648;-63
2021/08/28 05:27:11;;;;;;;5.27;4.47;;;;;;;18.68;59.00;101282.22;5073450;28;20207;-64
2021/08/28 05:29:36;;;;;;;9.67;4.93;;;;;;;18.70;58.85;101285.31;5073275;28;20188;-63
2021/08/28 05:32:02;;;;;;;6.83;4.87;;;;;;;18.53;58.36;101234.38;5072992;28;20189;-64
2021/08/28 05:34:27;;;;;;;5.70;4.90;;;;;;;18.75;57.75;101263.00;5072913;28;20692;-64
2021/08/28 05:36:53;;;;;;;7.17;5.20;;;;;;;18.93;57.72;101268.56;5082829;28;20637;-63
2021/08/28 05:39:18;;;;;;;5.47;4.83;;;;;;;19.07;57.54;101269.91;5093333;28;20179;-63
2021/08/28 05:41:44;;;;;;;6.27;5.10;;;;;;;19.19;56.86;101278.09;5075350;28;20193;-63
2021/08/28 05:44:10;;;;;;;7.63;6.00;;;;;;;19.14;56.79;101249.91;5087150;28;20187;-64
2021/08/28 05:46:35;;;;;;;5.93;5.17;;;;;;;19.38;56.83;101270.38;5073000;28;20650;-64
2021/08/28 05:49:00;;;;;;;6.97;6.00;;;;;;;19.04;56.60;101246.34;5083656;28;20251;-63
2021/08/28 05:51:26;;;;;;;7.70;5.47;;;;;;;18.53;56.75;101183.09;5093034;28;20269;-62
2021/08/28 05:53:51;;;;;;;7.20;5.47;;;;;;;19.30;56.77;101269.19;5092993;28;20173;-63
2021/08/28 05:56:17;;;;;;;7.73;5.90;;;;;;;19.18;56.68;101239.28;5086742;28;20231;-63
2021/08/28 05:58:42;;;;;;;6.83;5.83;;;;;;;19.52;55.92;101275.31;5072984;28;20163;-63
2021/08/28 06:01:08;;;;;;;6.73;5.87;;;;;;;19.57;55.52;101269.81;5072631;28;20623;-63
2021/08/28 06:03:33;;;;;;;7.60;5.50;;;;;;;19.76;55.43;101268.41;5072195;28;20183;-64
2021/08/28 06:05:59;;;;;;;6.57;4.90;;;;;;;19.90;55.05;101267.69;5072797;28;20176;-63
2021/08/28 06:08:24;;;;;;;7.17;4.73;;;;;;;19.81;54.57;101225.56;5079447;28;20207;-64
2021/08/28 06:10:49;;;;;;;6.53;4.53;;;;;;;20.22;53.35;101266.81;5092879;28;20176;-64
2021/08/28 06:13:15;;;;;;;6.30;4.27;;;;;;;20.29;52.42;101258.00;5092296;28;20684;-63
2021/08/28 06:15:41;;;;;;;8.50;4.53;;;;;;;20.07;52.87;101200.50;5092750;28;20271;-63
2021/08/28 06:18:06;;;;;;;5.77;4.40;;;;;;;20.29;52.67;101249.56;5083672;28;20203;-64
2021/08/28 06:20:32;;;;;;;4.50;3.93;;;;;;;20.37;52.61;101252.78;5058707;28;20723;-63
2021/08/28 06:22:57;;;;;;;4.90;3.87;;;;;;;20.54;51.53;101265.88;5072135;28;20184;-63
2021/08/28 06:25:23;;;;;;;4.97;3.70;;;;;;;20.54;51.04;101215.19;5072282;28;20191;-64
2021/08/28 06:27:48;;;;;;;4.70;3.50;;;;;;;20.47;50.60;101190.22;5072263;28;20207;-63
2021/08/28 06:30:14;;;;;;;5.17;3.47;;;;;;;21.05;50.32;101249.34;5071795;28;20252;-64
2021/08/28 06:32:39;;;;;;;4.50;3.30;;;;;;;20.85;49.69;101259.72;5080441;28;20179;-64
2021/08/28 06:35:05;;;;;;;4.57;3.40;;;;;;;20.82;49.68;101201.56;5092240;28;20179;-63
2021/08/28 06:37:30;;;;;;;4.23;3.20;;;;;;;21.04;49.70;101244.19;5077489;28;20244;-63
2021/08/28 06:39:56;;;;;;;4.33;3.40;;;;;;;21.04;49.78;101227.28;5072102;28;20202;-63
2021/08/28 06:42:21;;;;;;;5.47;3.03;;;;;;;20.68;49.42;101180.59;5072041;28;20183;-64
2021/08/28 06:44:47;;;;;;;4.23;3.20;;;;;;;20.73;49.36;101232.66;5072208;28;20195;-64
2021/08/28 06:47:12;;;;;;;4.57;3.30;;;;;;;20.81;50.61;101242.25;5070801;28;20203;-63
2021/08/28 06:49:38;;;;;;;4.00;3.20;;;;;;;20.60;50.00;101198.38;5087539;28;20178;-63
2021/08/28 06:52:04;;;;;;;4.03;3.10;;;;;;;20.81;49.63;101234.59;5092085;28;20557;-64
2021/08/28 06:54:29;;;;;;;4.20;3.10;;;;;;;20.82;50.08;101246.63;5090267;28;20203;-64
2021/08/28 06:56:55;;;;;;;5.60;3.03;;;;;;;20.43;49.89;101203.75;5089825;28;20231;-64
2021/08/28 06:59:20;;;;;;;3.53;2.80;;;;;;;20.80;50.19;101230.22;5091838;28;20171;-64
2021/08/28 07:01:46;;;;;;;4.33;3.27;;;;;;;21.10;50.54;101247.88;5091470;28;20178;-63
2021/08/28 07:04:11;;;;;;;4.30;3.10;;;;;;;20.85;49.77;101190.09;5091769;28;20175;-64
2021/08/28 07:06:37;;;;;;;4.27;3.27;;;;;;;21.34;49.20;101232.31;5091991;28;20182;-63
2021/08/28 07:09:03;;;;;;;5.97;3.30;;;;;;;21.50;48.41;101231.00;5070821;28;20193;-63
2021/08/28 07:11:29;;;;;;;6.13;3.60;;;;;;;21.21;48.26;101177.56;5070567;28;20276;-64
2021/08/28 07:13:54;;;;;;;5.53;3.30;;;;;;;21.64;48.43;101225.28;5069155;28;20274;-64
2021/08/28 07:16:20;;;;;;;4.07;2.70;;;;;;;21.66;46.47;101224.81;5069576;28;20184;-64
2021/08/28 07:18:46;;;;;;;3.80;2.53;;;;;;;21.47;46.56;101215.84;5069514;28;20270;-64
2021/08/28 07:21:11;;;;;;;3.70;2.97;;;;;;;21.84;47.30;101228.13;5068871;28;20187;-64
2021/08/28 07:23:37;;;;;;;4.33;3.00;;;;;;;21.70;48.03;101211.28;5069527;28;20187;-64
2021/08/28 07:26:03;;;;;;;3.67;2.80;;;;;;;22.02;47.44;101225.00;5072294;28;20183;-64
2021/08/28 07:28:28;;;;;;;4.10;3.00;;;;;;;21.69;45.48;101190.75;5069225;28;20692;-64
2021/08/28 07:30:54;;;;;;;3.63;2.33;;;;;;;21.98;46.39;101227.28;5070405;28;20191;-64
2021/08/28 07:33:19;;;;;;;5.17;2.80;;;;;;;22.13;45.84;101227.16;5072541;28;20187;-64
2021/08/28 07:35:46;;;;;;;4.10;2.47;;;;;;;22.15;45.43;101219.75;5069488;28;20187;-64
2021/08/28 07:38:11;;;;;;;4.83;2.60;;;;;;;22.39;46.44;101208.94;5068642;28;20646;-64
2021/08/28 07:40:37;;;;;;;3.70;2.03;;;;;;;22.26;44.63;101210.63;5052577;28;20197;-64
2021/08/28 07:43:03;;;;;;;3.50;2.40;;;;;;;22.01;44.77;101169.81;5053828;28;20200;-64
2021/08/28 07:45:28;;;;;;;3.37;2.67;;;;;;;22.28;44.47;101217.31;5048088;28;20199;-64
2021/08/28 07:47:55;;;;;;;3.20;2.20;;;;;;;22.41;44.80;101209.22;5057845;28;20697;-64
2021/08/28 07:50:20;;;;;;;4.60;2.53;;;;;;;22.38;43.80;101210.22;5045810;28;20627;-71
2021/08/28 07:52:46;;;;;;;3.43;2.60;;;;;;;22.40;43.78;101198.41;5020380;28;20389;-65
2021/08/28 07:55:13;;;;;;;2.97;2.30;;;;;;;22.62;44.57;101224.06;5047625;28;20193;-66
2021/08/28 07:57:40;;;;;;;3.07;2.30;;;;;;;22.68;44.04;101222.06;5059572;28;20223;-66
2021/08/28 08:00:07;;;;;;;2.90;2.20;;;;;;;22.39;43.12;101137.56;5045320;28;20811;-66
2021/08/28 08:02:32;;;;;;;3.60;2.70;;;;;;;23.01;42.58;101223.09;5046288;28;20198;-66
2021/08/28 08:04:58;;;;;;;3.20;2.30;;;;;;;22.96;42.49;101201.22;5044913;28;20195;-66
2021/08/28 08:07:23;;;;;;;3.20;2.13;;;;;;;21.90;42.29;101022.97;5039052;28;20574;-66
2021/08/28 08:09:49;;;;;;;3.40;2.43;;;;;;;23.25;42.00;101217.09;5051135;28;20315;-66
2021/08/28 08:12:14;;;;;;;3.33;2.10;;;;;;;22.60;42.16;101108.75;5043461;28;20633;-66
2021/08/28 08:14:40;;;;;;;3.00;2.00;;;;;;;23.48;41.30;101188.41;5056116;28;20188;-66
2021/08/28 08:17:06;;;;;;;3.83;2.63;;;;;;;23.69;40.97;101180.53;5052104;28;20191;-65
2021/08/28 08:19:31;;;;;;;3.67;2.57;;;;;;;23.82;40.54;101186.47;5060451;28;20192;-66
2021/08/28 08:21:57;;;;;;;3.93;2.63;;;;;;;23.95;40.85;101200.97;5057550;28;20783;-66
2021/08/28 08:24:22;;;;;;;4.10;2.67;;;;;;;23.92;40.43;101197.09;5060309;28;20585;-66
2021/08/28 08:26:48;;;;;;;5.23;2.60;;;;;;;24.09;39.93;101178.06;5056412;28;20264;-66
2021/08/28 08:29:13;;;;;;;3.30;2.50;;;;;;;23.77;40.38;101134.25;5039992;28;20675;-66
2021/08/28 08:31:39;;;;;;;5.53;2.50;;;;;;;24.16;39.96;101190.97;5060428;28;20238;-66
2021/08/28 08:34:04;;;;;;;4.50;2.63;;;;;;;24.21;39.52;101165.47;5058601;28;20194;-66
2021/08/28 08:36:30;;;;;;;3.90;2.63;;;;;;;24.59;39.35;101163.97;5064568;28;20644;-66
2021/08/28 08:38:55;;;;;;;4.00;2.67;;;;;;;24.72;39.05;101156.47;5062792;28;20448;-66
2021/08/28 08:41:24;;;;;;;4.93;3.30;;;;;;;24.77;38.68;101160.59;5059817;28;20202;-66
2021/08/28 08:43:50;;;;;;;4.93;3.10;;;;;;;24.90;38.46;101143.81;5059471;28;20236;-66
2021/08/28 08:46:16;;;;;;;4.70;2.97;;;;;;;25.22;38.07;101145.78;5062199;28;20215;-66
2021/08/28 08:48:43;;;;;;;4.53;3.20;;;;;;;25.32;37.38;101098.06;5061792;28;20199;-66
2021/08/28 08:51:10;;;;;;;4.93;3.03;;;;;;;25.63;36.69;101146.66;5027531;28;20184;-66
2021/08/28 08:53:35;;;;;;;5.60;3.17;;;;;;;25.53;37.00;101144.66;5060139;28;20183;-67
2021/08/28 08:56:01;;;;;;;3.53;2.80;;;;;;;25.48;36.99;101146.22;5066420;28;20191;-66
2021/08/28 08:58:28;;;;;;;3.33;2.80;;;;;;;25.65;36.94;101137.63;5065121;28;20224;-66
2021/08/28 09:00:53;;;;;;;6.70;2.33;;;;;;;25.90;37.13;101128.69;5061416;28;20180;-64
2021/08/28 09:03:19;;;;;;;3.63;2.80;;;;;;;26.12;37.20;101124.94;5063493;28;20280;-64
2021/08/28 09:05:47;;;;;;;2.90;2.53;;;;;;;26.30;35.76;101130.75;5064508;28;20187;-63
2021/08/28 09:08:13;;;;;;;3.50;2.87;;;;;;;26.31;36.29;101134.34;5060543;28;20215;-63
2021/08/28 09:10:40;;;;;;;4.53;3.00;;;;;;;26.30;36.96;101121.47;5061654;28;20188;-64
2021/08/28 09:13:15;;;;;;;3.97;3.17;;;;;;;26.37;35.77;101120.88;5060299;28;20269;-64
2021/08/28 09:15:49;;;;;;;3.77;3.10;;;;;;;26.56;36.39;101114.00;5061845;28;20181;-64
2021/08/28 09:18:15;;;;;;;4.03;3.17;;;;;;;26.75;36.46;101105.53;5061739;28;20190;-64
2021/08/28 09:20:41;;;;;;;4.00;3.20;;;;;;;26.26;35.85;101056.38;5064452;28;20192;-64
2021/08/28 09:23:12;;;;;;;4.07;2.97;;;;;;;26.70;36.01;101109.97;5056569;28;20191;-64
2021/08/28 09:25:40;;;;;;;3.63;2.80;;;;;;;26.84;36.02;101096.66;5065164;28;20718;-64
2021/08/28 09:28:07;;;;;;;3.73;2.90;;;;;;;27.07;35.67;101095.09;5068610;28;20196;-64
2021/08/28 09:30:46;;;;;;;3.90;3.07;;;;;;;27.32;34.93;101093.75;5069662;28;20179;-64
2021/08/28 09:33:16;;;;;;;4.05;3.03;;;;;;;27.51;34.34;101097.38;5067689;28;20198;-64
2021/08/28 09:35:48;;;;;;;4.75;3.00;;;;;;;27.64;34.45;101086.84;5065268;28;20672;-64
2021/08/28 09:38:17;;;;;;;4.78;2.95;;;;;;;28.02;33.63;101093.28;5068679;28;20191;-64
2021/08/28 09:40:45;;;;;;;4.07;2.90;;;;;;;28.09;33.19;101084.13;5070219;28;20179;-64
2021/08/28 09:43:27;;;;;;;4.25;3.20;;;;;;;27.89;33.15;101079.75;5051214;28;20281;-64
2021/08/28 09:45:54;;;;;;;5.00;3.28;;;;;;;27.90;33.27;101075.59;4938719;28;65454;-64
2021/08/28 09:48:30;;;;;;;3.60;3.30;;;;;;;27.84;33.20;101063.53;4875055;28;67462;-64
2021/08/28 09:50:55;;;;;;;8.40;3.30;;;;;;;27.55;33.20;101032.38;5050501;28;20555;-64
2021/08/28 09:53:26;;;;;;;5.05;3.47;;;;;;;27.58;34.16;101065.47;5057882;28;20290;-64
2021/08/28 09:55:58;;;;;;;4.22;3.38;;;;;;;27.61;32.89;101027.34;5064747;28;20199;-64
2021/08/28 09:58:26;;;;;;;3.35;2.83;;;;;;;27.75;33.43;101058.19;5060842;28;20194;-64
2021/08/28 10:00:51;;;;;;;4.63;3.30;;;;;;;27.87;32.38;101056.75;5055260;28;20191;-63
2021/08/28 10:03:21;;;;;;;4.10;3.10;;;;;;;27.85;31.99;101055.75;5056179;28;20195;-64
2021/08/28 10:05:47;;;;;;;4.47;2.88;;;;;;;28.06;31.91;101051.00;5055466;28;20223;-63
2021/08/28 10:08:13;;;;;;;4.80;3.30;;;;;;;28.41;32.39;101054.28;5054450;28;20240;-64
2021/08/28 10:10:39;;;;;;;4.10;3.25;;;;;;;28.28;31.82;101036.34;5059522;28;20180;-64
2021/08/28 10:13:07;;;;;;;5.13;3.63;;;;;;;28.16;32.24;100986.59;5050563;28;21324;-63
2021/08/28 10:15:36;;;;;;;3.55;2.78;;;;;;;28.74;31.27;101015.78;5048520;28;20575;-64
2021/08/28 10:18:05;;;;;;;4.07;3.28;;;;;;;29.39;30.79;101036.47;5044180;28;20190;-64
2021/08/28 10:20:30;;;;;;;4.22;3.10;;;;;;;29.29;28.89;101031.78;5064026;28;20573;-64
2021/08/28 10:23:00;;;;;;;5.22;3.22;;;;;;;28.90;29.76;101021.16;5054986;28;20267;-64
2021/08/28 10:25:28;;;;;;;4.05;3.25;;;;;;;29.26;29.11;101033.66;5058306;28;20183;-64
2021/08/28 10:27:55;;;;;;;5.13;3.40;;;;;;;29.25;29.53;101008.50;5049466;28;20208;-63
2021/08/28 10:30:24;;;;;;;6.70;3.38;;;;;;;29.79;29.33;101028.56;5058391;28;20187;-64
2021/08/28 10:32:51;;;;;;;4.28;3.40;;;;;;;29.98;29.23;101026.22;5054524;28;20685;-63
2021/08/28 10:35:18;;;;;;;4.63;3.20;;;;;;;29.86;28.78;101028.63;5042793;28;20642;-64
2021/08/28 10:37:45;;;;;;;3.88;3.30;;;;;;;30.01;28.88;101028.00;5056355;28;20203;-64
2021/08/28 10:40:16;;;;;;;3.95;3.35;;;;;;;30.05;28.99;101016.97;5062704;28;20668;-64
2021/08/28 10:42:42;;;;;;;5.03;3.35;;;;;;;30.08;28.25;100996.63;5059613;28;20690;-64
2021/08/28 10:45:09;;;;;;;4.10;3.70;;;;;;;30.42;27.91;101022.25;5057407;28;20214;-64
2021/08/28 10:47:35;;;;;;;4.55;3.72;;;;;;;30.72;27.32;101011.03;5063462;28;20310;-64
2021/08/28 10:50:08;;;;;;;4.57;3.25;;;;;;;30.98;27.76;101014.44;5061709;28;20701;-64
2021/08/28 10:52:37;;;;;;;4.07;3.55;;;;;;;30.99;27.58;101009.44;5041365;28;20256;-64
2021/08/28 10:55:13;;;;;;;3.97;3.58;;;;;;;31.16;28.15;101003.97;5056569;28;20196;-64
2021/08/28 10:57:39;;;;;;;4.18;3.40;;;;;;;31.11;27.50;100970.59;5046930;28;20228;-64
2021/08/28 11:00:08;;;;;;;4.05;3.30;;;;;;;31.66;27.02;101008.94;5061499;28;20274;-64
2021/08/28 11:02:53;;;;;;;6.13;3.67;;;;;;;31.89;27.18;101015.50;5059150;28;20277;-64
2021/08/28 11:05:38;;;;;;;4.72;3.65;;;;;;;32.07;27.24;101003.66;5050949;28;20187;-64
2021/08/28 11:08:17;;;;;;;4.80;3.88;;;;;;;32.16;27.50;101000.22;5057824;28;20608;-64
2021/08/28 11:11:03;;;;;;;4.82;3.88;;;;;;;32.22;26.59;101005.72;5062961;28;20278;-64
2021/08/28 11:13:53;;;;;;;4.43;4.00;;;;;;;32.23;26.34;100998.66;5060321;28;20271;-64
2021/08/28 11:16:41;;;;;;;4.40;4.00;;;;;;;32.19;26.19;100987.56;5071544;28;20196;-64
2021/08/28 11:19:11;;;;;;;5.72;4.50;;;;;;;32.27;25.80;101001.94;5051258;28;20237;-64
2021/08/28 11:21:44;;;;;;;4.53;3.83;;;;;;;32.03;26.03;100983.19;5048365;28;20227;-64
2021/08/28 11:24:12;;;;;;;5.22;4.70;;;;;;;31.60;26.45;100994.03;5050508;28;20263;-64
2021/08/28 11:26:39;;;;;;;6.32;4.70;;;;;;;31.66;27.08;101001.09;5055028;28;20192;-64